sensor_id;sensor_type;location;lat;lon;timestamp;pressure;altitude;pressure_sealevel;temperature;humidity
56340;BME280;42243;42.644;23.366;2023-06-01T00:01:26;94614.88;;;15.37;75.98
56340;BME280;42243;42.644;23.366;2023-06-01T00:03:52;94708.97;;;15.94;76.46
56340;BME280;42243;42.644;23.366;2023-06-01T00:06:17;94709.06;;;15.87;76.43
56340;BME280;42243;42.644;23.366;2023-06-01T00:08:43;94707.00;;;15.89;76.12
56340;BME280;42243;42.644;23.366;2023-06-01T00:11:09;94701.16;;;15.63;76.89
56340;BME280;42243;42.644;23.366;2023-06-01T00:13:34;94704.78;;;15.39;77.70
56340;BME280;42243;42.644;23.366;2023-06-01T00:16:01;94573.13;;;13.66;81.12
56340;BME280;42243;42.644;23.366;2023-06-01T00:18:27;94703.47;;;14.69;81.09
56340;BME280;42243;42.644;23.366;2023-06-01T00:20:52;94665.44;;;14.41;81.46
56340;BME280;42243;42.644;23.366;2023-06-01T00:23:18;94623.38;;;14.18;81.24
56340;BME280;42243;42.644;23.366;2023-06-01T00:25:45;94711.91;;;14.90;80.76
56340;BME280;42243;42.644;23.366;2023-06-01T00:28:11;94659.44;;;14.71;79.83
56340;BME280;42243;42.644;23.366;2023-06-01T00:30:36;94639.34;;;14.65;79.86
56340;BME280;42243;42.644;23.366;2023-06-01T00:33:02;94686.28;;;15.03;79.26
56340;BME280;42243;42.644;23.366;2023-06-01T00:35:27;94653.94;;;14.91;79.22
56340;BME280;42243;42.644;23.366;2023-06-01T00:37:53;94637.94;;;14.81;78.73
56340;BME280;42243;42.644;23.366;2023-06-01T00:40:18;94629.56;;;14.72;79.15
56340;BME280;42243;42.644;23.366;2023-06-01T00:42:44;94703.63;;;15.35;78.31
56340;BME280;42243;42.644;23.366;2023-06-01T00:45:10;94687.78;;;15.11;78.70
56340;BME280;42243;42.644;23.366;2023-06-01T00:47:40;94671.84;;;14.82;79.52
56340;BME280;42243;42.644;23.366;2023-06-01T00:50:08;94702.59;;;14.75;80.79
56340;BME280;42243;42.644;23.366;2023-06-01T00:52:35;94699.94;;;14.94;80.57
56340;BME280;42243;42.644;23.366;2023-06-01T00:55:02;94609.78;;;14.39;79.74
56340;BME280;42243;42.644;23.366;2023-06-01T00:57:28;94693.09;;;14.93;79.18
56340;BME280;42243;42.644;23.366;2023-06-01T00:59:54;94677.66;;;14.85;79.12
56340;BME280;42243;42.644;23.366;2023-06-01T01:02:20;94680.19;;;14.91;79.14
56340;BME280;42243;42.644;23.366;2023-06-01T01:04:46;94649.53;;;14.55;79.11
56340;BME280;42243;42.644;23.366;2023-06-01T01:19:48;94695.47;;;14.64;80.17
56340;BME280;42243;42.644;23.366;2023-06-01T01:21:45;94701.84;;;14.87;78.89
56340;BME280;42243;42.644;23.366;2023-06-01T01:24:39;94714.53;;;14.90;79.02
56340;BME280;42243;42.644;23.366;2023-06-01T01:30:07;94621.59;;;14.30;78.77
56340;BME280;42243;42.644;23.366;2023-06-01T01:32:34;94713.06;;;14.94;78.70
56340;BME280;42243;42.644;23.366;2023-06-01T01:35:01;94694.06;;;14.80;79.09
56340;BME280;42243;42.644;23.366;2023-06-01T01:37:27;94642.06;;;14.40;79.18
56340;BME280;42243;42.644;23.366;2023-06-01T01:39:52;94717.28;;;14.95;78.66
56340;BME280;42243;42.644;23.366;2023-06-01T01:42:18;94723.81;;;15.04;78.22
56340;BME280;42243;42.644;23.366;2023-06-01T01:44:44;94646.78;;;14.50;78.51
56340;BME280;42243;42.644;23.366;2023-06-01T01:47:34;94725.22;;;15.07;77.75
56340;BME280;42243;42.644;23.366;2023-06-01T01:50:06;94564.97;;;13.92;77.82
56340;BME280;42243;42.644;23.366;2023-06-01T01:52:37;94684.44;;;14.74;77.73
56340;BME280;42243;42.644;23.366;2023-06-01T01:55:05;94712.88;;;15.07;77.56
56340;BME280;42243;42.644;23.366;2023-06-01T01:57:32;94607.31;;;14.45;77.71
56340;BME280;42243;42.644;23.366;2023-06-01T02:00:00;94724.13;;;14.96;79.49
56340;BME280;42243;42.644;23.366;2023-06-01T02:02:27;94724.59;;;14.93;80.21
56340;BME280;42243;42.644;23.366;2023-06-01T02:04:52;94727.78;;;14.95;80.52
56340;BME280;42243;42.644;23.366;2023-06-01T02:07:17;94666.47;;;14.59;80.75
56340;BME280;42243;42.644;23.366;2023-06-01T02:09:43;94662.53;;;14.50;81.03
56340;BME280;42243;42.644;23.366;2023-06-01T02:12:08;94648.09;;;14.40;81.24
56340;BME280;42243;42.644;23.366;2023-06-01T02:14:34;94709.22;;;14.78;81.29
56340;BME280;42243;42.644;23.366;2023-06-01T02:17:00;94700.28;;;14.67;81.48
56340;BME280;42243;42.644;23.366;2023-06-01T02:19:26;94718.41;;;14.87;80.98
56340;BME280;42243;42.644;23.366;2023-06-01T02:21:51;94717.81;;;15.15;79.76
56340;BME280;42243;42.644;23.366;2023-06-01T02:24:17;94693.47;;;14.78;80.48
56340;BME280;42243;42.644;23.366;2023-06-01T02:26:43;94660.22;;;14.60;80.15
56340;BME280;42243;42.644;23.366;2023-06-01T02:29:08;94726.19;;;14.94;80.73
56340;BME280;42243;42.644;23.366;2023-06-01T02:31:34;94726.41;;;14.92;80.69
56340;BME280;42243;42.644;23.366;2023-06-01T02:34:00;94627.91;;;14.41;80.96
56340;BME280;42243;42.644;23.366;2023-06-01T02:36:27;94628.72;;;14.41;80.52
56340;BME280;42243;42.644;23.366;2023-06-01T02:38:54;94702.16;;;14.78;80.81
56340;BME280;42243;42.644;23.366;2023-06-01T02:41:20;94649.84;;;14.47;80.86
56340;BME280;42243;42.644;23.366;2023-06-01T02:43:46;94696.06;;;14.66;81.40
56340;BME280;42243;42.644;23.366;2023-06-01T02:46:12;94654.06;;;14.29;81.25
56340;BME280;42243;42.644;23.366;2023-06-01T02:48:37;94727.53;;;14.85;81.16
56340;BME280;42243;42.644;23.366;2023-06-01T02:51:03;94695.78;;;14.56;81.34
56340;BME280;42243;42.644;23.366;2023-06-01T02:53:28;94679.50;;;14.47;81.60
56340;BME280;42243;42.644;23.366;2023-06-01T02:55:54;94737.13;;;14.91;81.47
56340;BME280;42243;42.644;23.366;2023-06-01T02:58:20;94619.88;;;14.24;81.06
56340;BME280;42243;42.644;23.366;2023-06-01T03:00:45;94703.13;;;14.96;80.41
56340;BME280;42243;42.644;23.366;2023-06-01T03:03:12;94703.13;;;14.96;80.21
56340;BME280;42243;42.644;23.366;2023-06-01T03:05:37;94730.38;;;15.13;80.01
56340;BME280;42243;42.644;23.366;2023-06-01T03:08:04;94727.16;;;15.11;79.98
56340;BME280;42243;42.644;23.366;2023-06-01T03:10:31;94732.44;;;15.11;79.78
56340;BME280;42243;42.644;23.366;2023-06-01T03:12:56;94612.28;;;14.34;79.86
56340;BME280;42243;42.644;23.366;2023-06-01T03:15:22;94654.88;;;14.48;80.36
56340;BME280;42243;42.644;23.366;2023-06-01T03:17:47;94734.56;;;15.02;80.14
56340;BME280;42243;42.644;23.366;2023-06-01T03:20:13;94701.53;;;14.95;79.71
56340;BME280;42243;42.644;23.366;2023-06-01T03:22:44;94738.84;;;15.15;79.69
56340;BME280;42243;42.644;23.366;2023-06-01T03:25:11;94741.41;;;15.03;78.92
56340;BME280;42243;42.644;23.366;2023-06-01T03:27:38;94623.47;;;14.41;78.28
56340;BME280;42243;42.644;23.366;2023-06-01T03:30:04;94729.91;;;15.16;77.54
56340;BME280;42243;42.644;23.366;2023-06-01T03:32:36;94688.59;;;14.81;77.70
56340;BME280;42243;42.644;23.366;2023-06-01T03:35:03;94736.31;;;15.20;77.67
56340;BME280;42243;42.644;23.366;2023-06-01T03:37:28;94628.50;;;14.43;77.54
56340;BME280;42243;42.644;23.366;2023-06-01T03:39:54;94719.97;;;15.07;77.41
56340;BME280;42243;42.644;23.366;2023-06-01T03:42:19;94666.75;;;14.69;77.50
56340;BME280;42243;42.644;23.366;2023-06-01T03:44:45;94622.03;;;14.27;78.09
56340;BME280;42243;42.644;23.366;2023-06-01T03:47:10;94577.19;;;14.17;77.30
56340;BME280;42243;42.644;23.366;2023-06-01T03:49:36;94736.28;;;15.39;76.92
56340;BME280;42243;42.644;23.366;2023-06-01T03:52:01;94664.91;;;14.88;77.07
56340;BME280;42243;42.644;23.366;2023-06-01T03:54:26;94691.53;;;15.03;77.60
56340;BME280;42243;42.644;23.366;2023-06-01T03:56:52;94622.16;;;14.51;77.84
56340;BME280;42243;42.644;23.366;2023-06-01T03:59:17;94652.69;;;14.94;77.17
56340;BME280;42243;42.644;23.366;2023-06-01T04:01:43;94681.16;;;15.09;77.53
56340;BME280;42243;42.644;23.366;2023-06-01T04:04:08;94589.53;;;14.47;77.33
56340;BME280;42243;42.644;23.366;2023-06-01T04:06:35;94715.13;;;15.34;77.16
56340;BME280;42243;42.644;23.366;2023-06-01T04:09:02;94733.09;;;15.37;77.34
56340;BME280;42243;42.644;23.366;2023-06-01T04:11:32;94516.34;;;13.96;77.02
56340;BME280;42243;42.644;23.366;2023-06-01T04:13:58;94648.13;;;14.89;76.77
56340;BME280;42243;42.644;23.366;2023-06-01T04:16:24;94756.34;;;15.63;77.06
56340;BME280;42243;42.644;23.366;2023-06-01T04:18:49;94673.97;;;15.16;76.85
56340;BME280;42243;42.644;23.366;2023-06-01T04:21:15;94613.19;;;14.89;76.17
56340;BME280;42243;42.644;23.366;2023-06-01T04:23:41;94721.13;;;15.65;76.13
56340;BME280;42243;42.644;23.366;2023-06-01T04:26:08;94746.69;;;15.88;76.27
56340;BME280;42243;42.644;23.366;2023-06-01T04:28:33;94649.69;;;15.32;76.12
56340;BME280;42243;42.644;23.366;2023-06-01T04:30:59;94754.91;;;16.03;76.43
56340;BME280;42243;42.644;23.366;2023-06-01T04:33:25;94668.78;;;15.63;76.18
56340;BME280;42243;42.644;23.366;2023-06-01T04:35:53;94758.81;;;16.36;76.02
56340;BME280;42243;42.644;23.366;2023-06-01T04:38:21;94655.25;;;15.78;75.90
56340;BME280;42243;42.644;23.366;2023-06-01T04:40:50;94712.84;;;16.27;74.74
56340;BME280;42243;42.644;23.366;2023-06-01T04:43:18;94550.44;;;15.22;74.78
56340;BME280;42243;42.644;23.366;2023-06-01T04:45:45;94630.19;;;15.87;74.87
56340;BME280;42243;42.644;23.366;2023-06-01T04:48:10;94563.47;;;15.53;73.90
56340;BME280;42243;42.644;23.366;2023-06-01T04:50:36;94706.06;;;16.42;73.95
56340;BME280;42243;42.644;23.366;2023-06-01T04:53:02;94661.94;;;16.21;73.94
56340;BME280;42243;42.644;23.366;2023-06-01T04:55:27;94507.53;;;15.17;73.86
56340;BME280;42243;42.644;23.366;2023-06-01T04:57:53;94772.38;;;16.92;74.24
56340;BME280;42243;42.644;23.366;2023-06-01T05:00:19;94631.88;;;16.17;73.54
56340;BME280;42243;42.644;23.366;2023-06-01T05:02:46;94700.50;;;16.79;73.32
56340;BME280;42243;42.644;23.366;2023-06-01T05:05:13;94745.16;;;17.15;73.22
56340;BME280;42243;42.644;23.366;2023-06-01T05:07:40;94772.38;;;17.49;72.82
56340;BME280;42243;42.644;23.366;2023-06-01T05:10:08;94770.97;;;17.58;72.66
56340;BME280;42243;42.644;23.366;2023-06-01T05:12:34;94775.13;;;17.71;72.66
56340;BME280;42243;42.644;23.366;2023-06-01T05:15:03;94745.56;;;16.95;74.57
56340;BME280;42243;42.644;23.366;2023-06-01T05:17:29;94712.47;;;17.45;72.76
56340;BME280;42243;42.644;23.366;2023-06-01T05:19:54;94742.75;;;18.05;71.24
56340;BME280;42243;42.644;23.366;2023-06-01T05:22:20;94764.47;;;18.51;70.22
56340;BME280;42243;42.644;23.366;2023-06-01T05:24:45;94694.84;;;18.13;69.96
56340;BME280;42243;42.644;23.366;2023-06-01T05:27:10;94687.00;;;18.40;69.80
56340;BME280;42243;42.644;23.366;2023-06-01T05:29:36;94765.09;;;18.36;69.93
56340;BME280;42243;42.644;23.366;2023-06-01T05:32:02;94767.34;;;18.10;72.29
56340;BME280;42243;42.644;23.366;2023-06-01T05:34:27;94758.41;;;17.94;72.37
56340;BME280;42243;42.644;23.366;2023-06-01T05:36:52;94750.06;;;18.19;72.20
56340;BME280;42243;42.644;23.366;2023-06-01T05:39:18;94654.66;;;17.38;72.66
56340;BME280;42243;42.644;23.366;2023-06-01T05:41:43;94741.59;;;18.78;70.27
56340;BME280;42243;42.644;23.366;2023-06-01T05:44:09;94756.50;;;19.34;67.77
56340;BME280;42243;42.644;23.366;2023-06-01T05:46:34;94726.03;;;19.53;66.89
56340;BME280;42243;42.644;23.366;2023-06-01T05:49:00;94688.13;;;20.55;63.88
56340;BME280;42243;42.644;23.366;2023-06-01T05:51:25;94692.66;;;21.79;60.46
56340;BME280;42243;42.644;23.366;2023-06-01T05:53:51;94649.78;;;22.52;57.44
56340;BME280;42243;42.644;23.366;2023-06-01T05:56:16;94730.75;;;23.80;55.36
56340;BME280;42243;42.644;23.366;2023-06-01T05:58:42;94744.63;;;23.72;54.95
56340;BME280;42243;42.644;23.366;2023-06-01T06:01:08;94710.72;;;25.56;49.23
56340;BME280;42243;42.644;23.366;2023-06-01T06:03:35;94698.69;;;28.88;41.74
56340;BME280;42243;42.644;23.366;2023-06-01T06:06:01;94690.22;;;30.17;37.70
56340;BME280;42243;42.644;23.366;2023-06-01T06:08:26;94649.47;;;31.76;35.33
56340;BME280;42243;42.644;23.366;2023-06-01T06:10:52;94582.22;;;33.03;31.40
56340;BME280;42243;42.644;23.366;2023-06-01T06:13:18;94698.03;;;32.55;33.85
56340;BME280;42243;42.644;23.366;2023-06-01T06:15:44;94689.75;;;33.90;31.20
56340;BME280;42243;42.644;23.366;2023-06-01T06:18:09;94654.81;;;32.80;32.62
56340;BME280;42243;42.644;23.366;2023-06-01T06:20:35;94721.38;;;33.74;31.75
56340;BME280;42243;42.644;23.366;2023-06-01T06:23:00;94749.59;;;30.68;35.94
56340;BME280;42243;42.644;23.366;2023-06-01T06:25:26;94611.69;;;28.81;38.69
56340;BME280;42243;42.644;23.366;2023-06-01T06:27:51;94247.84;;;30.78;32.02
56340;BME280;42243;42.644;23.366;2023-06-01T06:30:17;94747.91;;;35.17;29.15
56340;BME280;42243;42.644;23.366;2023-06-01T06:32:42;94676.13;;;33.46;30.90
56340;BME280;42243;42.644;23.366;2023-06-01T06:35:08;94753.47;;;34.04;30.38
56340;BME280;42243;42.644;23.366;2023-06-01T06:37:37;94730.22;;;33.22;31.63
56340;BME280;42243;42.644;23.366;2023-06-01T06:40:03;94697.63;;;36.33;28.18
56340;BME280;42243;42.644;23.366;2023-06-01T06:42:29;94719.16;;;38.76;25.21
56340;BME280;42243;42.644;23.366;2023-06-01T06:44:54;94722.88;;;40.52;23.14
56340;BME280;42243;42.644;23.366;2023-06-01T06:47:22;94686.94;;;41.04;22.51
56340;BME280;42243;42.644;23.366;2023-06-01T06:49:47;94678.69;;;42.39;21.41
56340;BME280;42243;42.644;23.366;2023-06-01T06:52:13;94742.41;;;43.55;20.45
56340;BME280;42243;42.644;23.366;2023-06-01T06:54:39;94749.03;;;42.63;21.10
56340;BME280;42243;42.644;23.366;2023-06-01T06:57:05;94663.97;;;44.46;19.32
56340;BME280;42243;42.644;23.366;2023-06-01T06:59:31;94630.72;;;43.48;19.97
56340;BME280;42243;42.644;23.366;2023-06-01T07:01:57;94641.53;;;45.62;17.87
56340;BME280;42243;42.644;23.366;2023-06-01T07:04:22;94718.50;;;47.15;16.85
56340;BME280;42243;42.644;23.366;2023-06-01T07:06:48;94695.88;;;47.95;16.29
56340;BME280;42243;42.644;23.366;2023-06-01T07:09:13;94748.31;;;48.11;16.34
56340;BME280;42243;42.644;23.366;2023-06-01T07:11:41;94621.56;;;48.48;15.71
56340;BME280;42243;42.644;23.366;2023-06-01T07:14:08;94737.03;;;48.19;15.55
56340;BME280;42243;42.644;23.366;2023-06-01T07:16:33;94713.81;;;47.12;16.15
56340;BME280;42243;42.644;23.366;2023-06-01T07:18:59;94637.25;;;47.00;15.75
56340;BME280;42243;42.644;23.366;2023-06-01T07:21:24;94715.19;;;48.63;15.82
56340;BME280;42243;42.644;23.366;2023-06-01T07:23:50;94595.81;;;48.13;15.57
56340;BME280;42243;42.644;23.366;2023-06-01T07:26:15;94656.41;;;46.74;16.23
56340;BME280;42243;42.644;23.366;2023-06-01T07:28:41;94702.19;;;45.15;17.45
56340;BME280;42243;42.644;23.366;2023-06-01T07:31:07;94387.66;;;43.44;18.19
56340;BME280;42243;42.644;23.366;2023-06-01T07:33:34;94725.78;;;46.92;16.82
56340;BME280;42243;42.644;23.366;2023-06-01T07:36:01;94622.88;;;45.10;17.80
56340;BME280;42243;42.644;23.366;2023-06-01T07:38:28;94662.53;;;46.49;17.33
56340;BME280;42243;42.644;23.366;2023-06-01T07:40:53;94666.75;;;46.70;17.03
56340;BME280;42243;42.644;23.366;2023-06-01T07:43:19;94633.00;;;46.29;16.96
56340;BME280;42243;42.644;23.366;2023-06-01T07:45:44;94655.25;;;46.22;17.19
56340;BME280;42243;42.644;23.366;2023-06-01T07:48:10;94709.28;;;45.80;17.73
56340;BME280;42243;42.644;23.366;2023-06-01T07:50:35;94648.31;;;44.43;18.81
56340;BME280;42243;42.644;23.366;2023-06-01T07:53:01;94684.81;;;43.86;20.20
56340;BME280;42243;42.644;23.366;2023-06-01T07:55:28;94563.84;;;42.03;20.46
56340;BME280;42243;42.644;23.366;2023-06-01T07:57:55;94693.88;;;41.73;21.25
56340;BME280;42243;42.644;23.366;2023-06-01T08:00:22;94624.06;;;40.07;22.64
56340;BME280;42243;42.644;23.366;2023-06-01T08:02:47;94671.13;;;39.79;23.08
56340;BME280;42243;42.644;23.366;2023-06-01T08:05:13;94665.31;;;39.11;24.40
56340;BME280;42243;42.644;23.366;2023-06-01T08:07:41;94660.47;;;38.41;25.05
56340;BME280;42243;42.644;23.366;2023-06-01T08:10:08;94547.34;;;37.01;25.42
56340;BME280;42243;42.644;23.366;2023-06-01T08:12:36;94638.38;;;37.11;26.02
56340;BME280;42243;42.644;23.366;2023-06-01T08:15:03;94695.88;;;37.13;27.04
56340;BME280;42243;42.644;23.366;2023-06-01T08:17:29;94637.56;;;36.61;26.80
56340;BME280;42243;42.644;23.366;2023-06-01T08:19:55;94594.06;;;36.11;28.12
56340;BME280;42243;42.644;23.366;2023-06-01T08:22:22;94679.75;;;36.32;28.34
56340;BME280;42243;42.644;23.366;2023-06-01T08:24:48;94681.06;;;35.99;29.32
56340;BME280;42243;42.644;23.366;2023-06-01T08:27:21;94628.84;;;35.63;29.55
56340;BME280;42243;42.644;23.366;2023-06-01T08:29:47;94645.50;;;35.26;29.65
56340;BME280;42243;42.644;23.366;2023-06-01T08:32:14;94672.88;;;35.21;29.93
56340;BME280;42243;42.644;23.366;2023-06-01T08:34:40;94645.94;;;34.45;31.22
56340;BME280;42243;42.644;23.366;2023-06-01T08:37:06;94649.69;;;34.56;30.69
56340;BME280;42243;42.644;23.366;2023-06-01T08:39:32;94668.47;;;34.33;31.68
56340;BME280;42243;42.644;23.366;2023-06-01T08:44:41;94569.34;;;32.71;31.93
56340;BME280;42243;42.644;23.366;2023-06-01T08:47:08;94654.63;;;33.09;33.32
56340;BME280;42243;42.644;23.366;2023-06-01T08:49:35;94625.81;;;32.89;33.65
56340;BME280;42243;42.644;23.366;2023-06-01T08:52:21;94600.97;;;29.85;38.22
56340;BME280;42243;42.644;23.366;2023-06-01T08:54:47;94526.00;;;30.22;37.56
56340;BME280;42243;42.644;23.366;2023-06-01T08:57:13;94486.88;;;29.65;36.98
56340;BME280;42243;42.644;23.366;2023-06-01T08:59:39;94651.84;;;31.14;37.41
56340;BME280;42243;42.644;23.366;2023-06-01T09:02:05;94496.75;;;29.91;36.86
56340;BME280;42243;42.644;23.366;2023-06-01T09:04:32;94505.31;;;28.50;38.95
56340;BME280;42243;42.644;23.366;2023-06-01T09:06:59;94643.38;;;30.65;37.07
56340;BME280;42243;42.644;23.366;2023-06-01T09:09:25;94585.34;;;29.44;39.07
56340;BME280;42243;42.644;23.366;2023-06-01T09:14:41;94639.47;;;30.07;38.66
56340;BME280;42243;42.644;23.366;2023-06-01T09:17:06;94450.53;;;29.12;37.57
56340;BME280;42243;42.644;23.366;2023-06-01T09:19:44;94610.78;;;29.81;40.17
56340;BME280;42243;42.644;23.366;2023-06-01T09:22:11;94636.38;;;29.70;40.71
56340;BME280;42243;42.644;23.366;2023-06-01T09:24:37;94539.41;;;29.19;39.29
56340;BME280;42243;42.644;23.366;2023-06-01T09:27:02;94568.03;;;28.00;40.71
56340;BME280;42243;42.644;23.366;2023-06-01T09:29:29;94594.03;;;28.31;41.83
56340;BME280;42243;42.644;23.366;2023-06-01T09:31:55;94466.28;;;27.37;41.62
56340;BME280;42243;42.644;23.366;2023-06-01T09:34:22;94583.81;;;28.02;41.07
56340;BME280;42243;42.644;23.366;2023-06-01T09:36:50;94408.28;;;26.70;41.13
56340;BME280;42243;42.644;23.366;2023-06-01T09:39:21;94619.31;;;27.76;42.84
56340;BME280;42243;42.644;23.366;2023-06-01T09:41:58;94628.25;;;28.25;42.61
56340;BME280;42243;42.644;23.366;2023-06-01T09:44:32;94561.50;;;27.30;43.37
56340;BME280;42243;42.644;23.366;2023-06-01T09:47:01;94602.59;;;27.25;43.59
56340;BME280;42243;42.644;23.366;2023-06-01T09:49:29;94552.53;;;27.57;42.83
56340;BME280;42243;42.644;23.366;2023-06-01T09:54:36;94540.75;;;27.89;42.96
56340;BME280;42243;42.644;23.366;2023-06-01T09:57:03;94572.88;;;28.87;42.10
56340;BME280;42243;42.644;23.366;2023-06-01T09:59:30;94597.53;;;29.15;40.49
56340;BME280;42243;42.644;23.366;2023-06-01T10:02:04;94559.00;;;29.20;39.71
56340;BME280;42243;42.644;23.366;2023-06-01T10:04:30;94500.88;;;28.54;38.05
56340;BME280;42243;42.644;23.366;2023-06-01T10:06:57;94588.53;;;29.11;38.99
56340;BME280;42243;42.644;23.366;2023-06-01T10:09:24;94531.13;;;28.46;38.01
56340;BME280;42243;42.644;23.366;2023-06-01T10:11:54;94574.41;;;28.53;38.80
56340;BME280;42243;42.644;23.366;2023-06-01T10:14:24;94497.03;;;27.80;39.26
56340;BME280;42243;42.644;23.366;2023-06-01T10:16:52;94540.78;;;27.98;38.11
56340;BME280;42243;42.644;23.366;2023-06-01T10:19:19;94591.78;;;27.84;36.85
56340;BME280;42243;42.644;23.366;2023-06-01T10:21:46;94584.09;;;27.91;36.37
56340;BME280;42243;42.644;23.366;2023-06-01T10:24:17;94520.25;;;27.31;35.62
56340;BME280;42243;42.644;23.366;2023-06-01T10:29:14;94430.00;;;26.55;36.64
56340;BME280;42243;42.644;23.366;2023-06-01T10:31:42;94452.38;;;26.59;36.71
56340;BME280;42243;42.644;23.366;2023-06-01T10:34:11;94593.38;;;27.40;37.03
56340;BME280;42243;42.644;23.366;2023-06-01T10:39:25;94525.81;;;26.75;35.95
56340;BME280;42243;42.644;23.366;2023-06-01T10:41:52;94576.84;;;27.02;37.16
56340;BME280;42243;42.644;23.366;2023-06-01T10:47:43;94492.19;;;26.47;37.63
56340;BME280;42243;42.644;23.366;2023-06-01T10:52:27;94535.97;;;26.65;38.79
56340;BME280;42243;42.644;23.366;2023-06-01T10:54:54;94435.50;;;26.00;39.76
56340;BME280;42243;42.644;23.366;2023-06-01T10:57:23;94436.56;;;25.98;39.75
56340;BME280;42243;42.644;23.366;2023-06-01T11:00:10;94511.16;;;26.09;40.31
56340;BME280;42243;42.644;23.366;2023-06-01T11:02:44;94534.91;;;26.24;41.14
56340;BME280;42243;42.644;23.366;2023-06-01T11:08:49;94561.91;;;25.95;41.51
56340;BME280;42243;42.644;23.366;2023-06-01T11:11:00;94521.88;;;25.48;41.26
56340;BME280;42243;42.644;23.366;2023-06-01T11:13:29;94520.66;;;25.27;39.87
56340;BME280;42243;42.644;23.366;2023-06-01T11:18:47;94475.38;;;24.51;42.49
56340;BME280;42243;42.644;23.366;2023-06-01T11:21:21;94561.97;;;24.72;43.14
56340;BME280;42243;42.644;23.366;2023-06-01T11:23:49;94445.97;;;23.51;45.46
56340;BME280;42243;42.644;23.366;2023-06-01T11:26:16;94563.22;;;23.59;48.21
56340;BME280;42243;42.644;23.366;2023-06-01T11:28:42;94566.69;;;22.91;49.88
56340;BME280;42243;42.644;23.366;2023-06-01T11:31:10;94494.94;;;21.87;51.30
56340;BME280;42243;42.644;23.366;2023-06-01T11:33:38;94520.47;;;21.72;52.61
56340;BME280;42243;42.644;23.366;2023-06-01T11:36:04;94520.78;;;21.14;53.28
56340;BME280;42243;42.644;23.366;2023-06-01T11:38:35;94586.81;;;21.31;54.70
56340;BME280;42243;42.644;23.366;2023-06-01T11:41:02;94541.13;;;20.52;57.89
56340;BME280;42243;42.644;23.366;2023-06-01T11:43:30;94465.34;;;19.57;56.86
56340;BME280;42243;42.644;23.366;2023-06-01T11:46:06;94579.47;;;19.76;57.78
56340;BME280;42243;42.644;23.366;2023-06-01T11:48:33;94531.44;;;18.83;60.70
56340;BME280;42243;42.644;23.366;2023-06-01T11:51:02;94621.13;;;19.64;61.20
56340;BME280;42243;42.644;23.366;2023-06-01T11:53:31;94492.09;;;18.81;60.75
56340;BME280;42243;42.644;23.366;2023-06-01T11:55:57;94533.72;;;19.01;60.79
56340;BME280;42243;42.644;23.366;2023-06-01T11:58:28;94587.59;;;19.70;57.52
56340;BME280;42243;42.644;23.366;2023-06-01T12:00:54;94519.81;;;19.53;61.51
56340;BME280;42243;42.644;23.366;2023-06-01T12:03:21;94606.34;;;20.06;65.50
56340;BME280;42243;42.644;23.366;2023-06-01T12:05:46;94558.38;;;19.92;67.16
56340;BME280;42243;42.644;23.366;2023-06-01T12:08:20;94596.41;;;20.28;65.87
56340;BME280;42243;42.644;23.366;2023-06-01T12:10:47;94613.38;;;20.42;64.04
56340;BME280;42243;42.644;23.366;2023-06-01T12:13:14;94459.53;;;19.55;64.29
56340;BME280;42243;42.644;23.366;2023-06-01T12:15:40;94566.22;;;20.34;62.89
56340;BME280;42243;42.644;23.366;2023-06-01T12:18:05;94401.31;;;19.45;64.41
56340;BME280;42243;42.644;23.366;2023-06-01T12:22:57;94537.25;;;20.02;66.71
56340;BME280;42243;42.644;23.366;2023-06-01T12:25:24;94513.13;;;19.88;67.86
56340;BME280;42243;42.644;23.366;2023-06-01T12:28:08;94423.66;;;19.22;68.03
56340;BME280;42243;42.644;23.366;2023-06-01T12:30:35;94487.69;;;19.77;67.69
56340;BME280;42243;42.644;23.366;2023-06-01T12:33:01;94457.34;;;19.42;68.31
56340;BME280;42243;42.644;23.366;2023-06-01T12:35:29;94539.56;;;19.83;68.75
56340;BME280;42243;42.644;23.366;2023-06-01T12:38:05;94530.19;;;19.70;69.65
56340;BME280;42243;42.644;23.366;2023-06-01T12:40:32;94411.25;;;19.23;69.13
56340;BME280;42243;42.644;23.366;2023-06-01T12:42:58;94422.44;;;19.35;69.46
56340;BME280;42243;42.644;23.366;2023-06-01T12:45:24;94524.81;;;19.97;69.99
56340;BME280;42243;42.644;23.366;2023-06-01T12:47:49;94494.03;;;19.33;70.61
56340;BME280;42243;42.644;23.366;2023-06-01T12:50:15;94424.78;;;18.89;70.39
56340;BME280;42243;42.644;23.366;2023-06-01T12:52:41;94537.06;;;19.24;72.71
56340;BME280;42243;42.644;23.366;2023-06-01T12:55:09;94500.13;;;18.69;72.48
56340;BME280;42243;42.644;23.366;2023-06-01T12:57:36;94429.59;;;18.65;72.17
56340;BME280;42243;42.644;23.366;2023-06-01T13:00:04;94456.69;;;19.19;70.92
56340;BME280;42243;42.644;23.366;2023-06-01T13:02:31;94418.16;;;19.29;68.52
56340;BME280;42243;42.644;23.366;2023-06-01T13:04:57;94365.75;;;19.10;67.18
56340;BME280;42243;42.644;23.366;2023-06-01T13:07:23;94510.56;;;20.04;66.52
56340;BME280;42243;42.644;23.366;2023-06-01T13:09:49;94346.84;;;19.39;65.44
56340;BME280;42243;42.644;23.366;2023-06-01T13:12:14;94490.53;;;20.44;65.54
56340;BME280;42243;42.644;23.366;2023-06-01T13:14:40;94469.88;;;20.40;63.90
56340;BME280;42243;42.644;23.366;2023-06-01T13:17:06;94491.13;;;20.81;63.06
56340;BME280;42243;42.644;23.366;2023-06-01T13:19:32;94457.47;;;20.72;63.89
56340;BME280;42243;42.644;23.366;2023-06-01T13:21:57;94397.34;;;20.47;63.07
56340;BME280;42243;42.644;23.366;2023-06-01T13:24:23;94364.47;;;20.27;63.60
56340;BME280;42243;42.644;23.366;2023-06-01T13:26:48;94481.59;;;20.80;60.34
56340;BME280;42243;42.644;23.366;2023-06-01T13:29:14;94326.88;;;19.79;60.80
56340;BME280;42243;42.644;23.366;2023-06-01T13:31:40;94387.78;;;20.20;61.95